sensor_id;sensor_type;location;lat;lon;timestamp;temperature;humidity
14873;DHT22;7528;48.576;19.122;2022-12-18T00:03:25;1.00;64.90
14873;DHT22;7528;48.576;19.122;2022-12-18T00:08:29;1.00;65.30
14873;DHT22;7528;48.576;19.122;2022-12-18T00:13:34;0.90;65.00
14873;DHT22;7528;48.576;19.122;2022-12-18T00:18:37;1.00;64.90
14873;DHT22;7528;48.576;19.122;2022-12-18T00:23:43;1.00;64.60
14873;DHT22;7528;48.576;19.122;2022-12-18T00:28:46;0.90;63.90
14873;DHT22;7528;48.576;19.122;2022-12-18T00:33:48;0.90;64.40
14873;DHT22;7528;48.576;19.122;2022-12-18T00:38:54;0.90;64.10
14873;DHT22;7528;48.576;19.122;2022-12-18T00:43:56;0.90;64.20
14873;DHT22;7528;48.576;19.122;2022-12-18T00:48:59;0.80;64.70
14873;DHT22;7528;48.576;19.122;2022-12-18T00:54:04;0.80;64.50
14873;DHT22;7528;48.576;19.122;2022-12-18T00:59:06;0.80;64.40
14873;DHT22;7528;48.576;19.122;2022-12-18T01:04:09;0.70;64.30
14873;DHT22;7528;48.576;19.122;2022-12-18T01:09:14;0.70;64.70
14873;DHT22;7528;48.576;19.122;2022-12-18T01:14:17;0.70;64.60
14873;DHT22;7528;48.576;19.122;2022-12-18T01:19:19;0.60;64.40
14873;DHT22;7528;48.576;19.122;2022-12-18T01:24:24;0.50;64.30
14873;DHT22;7528;48.576;19.122;2022-12-18T01:29:26;0.50;65.30
14873;DHT22;7528;48.576;19.122;2022-12-18T01:34:29;0.50;64.50
14873;DHT22;7528;48.576;19.122;2022-12-18T01:39:33;0.50;64.30
14873;DHT22;7528;48.576;19.122;2022-12-18T01:45:08;0.50;64.70
14873;DHT22;7528;48.576;19.122;2022-12-18T01:50:28;0.40;64.50
14873;DHT22;7528;48.576;19.122;2022-12-18T01:55:37;0.30;64.20
14873;DHT22;7528;48.576;19.122;2022-12-18T02:00:40;0.20;64.60
14873;DHT22;7528;48.576;19.122;2022-12-18T02:05:46;0.30;65.40
14873;DHT22;7528;48.576;19.122;2022-12-18T02:10:59;0.20;64.80
14873;DHT22;7528;48.576;19.122;2022-12-18T02:16:07;0.10;64.70
14873;DHT22;7528;48.576;19.122;2022-12-18T02:21:24;0.10;64.80
14873;DHT22;7528;48.576;19.122;2022-12-18T02:26:35;0.10;64.40
14873;DHT22;7528;48.576;19.122;2022-12-18T02:31:42;0.10;64.20
14873;DHT22;7528;48.576;19.122;2022-12-18T02:36:48;0.00;64.60
14873;DHT22;7528;48.576;19.122;2022-12-18T02:41:54;0.00;64.90
14873;DHT22;7528;48.576;19.122;2022-12-18T02:46:59;0.00;64.70
14873;DHT22;7528;48.576;19.122;2022-12-18T02:52:07;-0.10;64.60
14873;DHT22;7528;48.576;19.122;2022-12-18T02:57:21;-0.20;64.60
14873;DHT22;7528;48.576;19.122;2022-12-18T03:02:33;-0.20;64.60
14873;DHT22;7528;48.576;19.122;2022-12-18T03:07:42;-0.30;64.60
14873;DHT22;7528;48.576;19.122;2022-12-18T03:12:52;-0.30;64.70
14873;DHT22;7528;48.576;19.122;2022-12-18T03:18:01;-0.30;64.60
14873;DHT22;7528;48.576;19.122;2022-12-18T03:23:09;-0.40;64.20
14873;DHT22;7528;48.576;19.122;2022-12-18T03:28:16;-0.40;64.20
14873;DHT22;7528;48.576;19.122;2022-12-18T03:33:23;-0.50;63.90
14873;DHT22;7528;48.576;19.122;2022-12-18T03:38:29;-0.60;64.40
14873;DHT22;7528;48.576;19.122;2022-12-18T03:43:42;-0.60;64.60
14873;DHT22;7528;48.576;19.122;2022-12-18T03:48:49;-0.70;64.90
14873;DHT22;7528;48.576;19.122;2022-12-18T03:53:57;-0.70;64.60
14873;DHT22;7528;48.576;19.122;2022-12-18T03:59:08;-0.70;64.60
14873;DHT22;7528;48.576;19.122;2022-12-18T04:04:14;-0.80;64.80
14873;DHT22;7528;48.576;19.122;2022-12-18T04:09:19;-0.80;64.80
14873;DHT22;7528;48.576;19.122;2022-12-18T04:14:25;-0.80;64.50
14873;DHT22;7528;48.576;19.122;2022-12-18T04:19:30;-0.80;64.40
14873;DHT22;7528;48.576;19.122;2022-12-18T04:24:34;-0.90;64.60
14873;DHT22;7528;48.576;19.122;2022-12-18T04:29:45;-1.00;64.70
14873;DHT22;7528;48.576;19.122;2022-12-18T04:34:49;-1.00;64.10
14873;DHT22;7528;48.576;19.122;2022-12-18T04:39:52;-1.10;64.20
14873;DHT22;7528;48.576;19.122;2022-12-18T04:45:03;-1.10;64.30
14873;DHT22;7528;48.576;19.122;2022-12-18T04:50:07;-1.10;64.60
14873;DHT22;7528;48.576;19.122;2022-12-18T04:55:10;-1.10;64.40
14873;DHT22;7528;48.576;19.122;2022-12-18T05:00:15;-1.20;64.30
14873;DHT22;7528;48.576;19.122;2022-12-18T05:05:18;-1.20;64.70
14873;DHT22;7528;48.576;19.122;2022-12-18T05:10:20;-1.20;64.50
14873;DHT22;7528;48.576;19.122;2022-12-18T05:15:26;-1.20;64.10
14873;DHT22;7528;48.576;19.122;2022-12-18T05:20:29;-1.30;64.30
14873;DHT22;7528;48.576;19.122;2022-12-18T05:25:32;-1.30;64.20
14873;DHT22;7528;48.576;19.122;2022-12-18T05:30:35;-1.40;64.20
14873;DHT22;7528;48.576;19.122;2022-12-18T05:35:38;-1.40;64.20
14873;DHT22;7528;48.576;19.122;2022-12-18T05:40:41;-1.50;64.10
14873;DHT22;7528;48.576;19.122;2022-12-18T05:45:46;-1.50;64.10
14873;DHT22;7528;48.576;19.122;2022-12-18T05:50:49;-1.50;64.00
14873;DHT22;7528;48.576;19.122;2022-12-18T05:55:52;-1.50;63.80
14873;DHT22;7528;48.576;19.122;2022-12-18T06:00:57;-1.60;63.60
14873;DHT22;7528;48.576;19.122;2022-12-18T06:06:00;-1.60;63.80
14873;DHT22;7528;48.576;19.122;2022-12-18T06:11:02;-1.60;64.20
14873;DHT22;7528;48.576;19.122;2022-12-18T06:16:07;-1.60;64.00
14873;DHT22;7528;48.576;19.122;2022-12-18T06:21:10;-1.60;63.70
14873;DHT22;7528;48.576;19.122;2022-12-18T06:26:13;-1.60;63.70
14873;DHT22;7528;48.576;19.122;2022-12-18T06:31:17;-1.70;63.90
14873;DHT22;7528;48.576;19.122;2022-12-18T06:36:20;-1.70;63.90
14873;DHT22;7528;48.576;19.122;2022-12-18T06:41:23;-1.70;63.90
14873;DHT22;7528;48.576;19.122;2022-12-18T06:46:27;-1.70;64.00
14873;DHT22;7528;48.576;19.122;2022-12-18T06:51:30;-1.80;63.70
14873;DHT22;7528;48.576;19.122;2022-12-18T06:56:33;-1.80;64.50
14873;DHT22;7528;48.576;19.122;2022-12-18T07:01:37;-1.70;63.60
14873;DHT22;7528;48.576;19.122;2022-12-18T07:06:39;-1.70;63.80
14873;DHT22;7528;48.576;19.122;2022-12-18T07:11:42;-1.70;64.30
14873;DHT22;7528;48.576;19.122;2022-12-18T07:16:46;-1.60;64.40
14873;DHT22;7528;48.576;19.122;2022-12-18T07:21:49;-1.50;64.40
14873;DHT22;7528;48.576;19.122;2022-12-18T07:27:02;-1.50;64.30
14873;DHT22;7528;48.576;19.122;2022-12-18T07:32:10;-1.40;64.20
14873;DHT22;7528;48.576;19.122;2022-12-18T07:37:14;-1.40;64.40
14873;DHT22;7528;48.576;19.122;2022-12-18T07:42:28;-1.40;64.20
14873;DHT22;7528;48.576;19.122;2022-12-18T07:47:36;-1.30;63.90
14873;DHT22;7528;48.576;19.122;2022-12-18T07:52:39;-1.20;64.00
14873;DHT22;7528;48.576;19.122;2022-12-18T07:57:41;-1.00;63.70
14873;DHT22;7528;48.576;19.122;2022-12-18T08:02:45;-0.90;63.30
14873;DHT22;7528;48.576;19.122;2022-12-18T08:07:48;-0.80;63.20
14873;DHT22;7528;48.576;19.122;2022-12-18T08:12:51;-0.80;63.80
14873;DHT22;7528;48.576;19.122;2022-12-18T08:17:57;-0.70;63.00
14873;DHT22;7528;48.576;19.122;2022-12-18T08:23:00;-0.60;62.60
14873;DHT22;7528;48.576;19.122;2022-12-18T08:28:03;-0.30;62.00
14873;DHT22;7528;48.576;19.122;2022-12-18T08:33:07;0.00;61.70
14873;DHT22;7528;48.576;19.122;2022-12-18T08:38:10;0.30;61.30
14873;DHT22;7528;48.576;19.122;2022-12-18T08:43:12;0.70;61.10
14873;DHT22;7528;48.576;19.122;2022-12-18T08:48:33;2.10;59.20
14873;DHT22;7528;48.576;19.122;2022-12-18T08:53:37;4.60;54.50
14873;DHT22;7528;48.576;19.122;2022-12-18T08:58:39;6.90;48.70
14873;DHT22;7528;48.576;19.122;2022-12-18T09:03:43;8.50;44.00
14873;DHT22;7528;48.576;19.122;2022-12-18T09:08:46;10.00;41.10
14873;DHT22;7528;48.576;19.122;2022-12-18T09:13:49;11.20;38.30
14873;DHT22;7528;48.576;19.122;2022-12-18T09:18:54;12.40;35.60
14873;DHT22;7528;48.576;19.122;2022-12-18T09:24:00;13.30;33.70
14873;DHT22;7528;48.576;19.122;2022-12-18T09:29:03;14.40;31.90
14873;DHT22;7528;48.576;19.122;2022-12-18T09:34:07;15.30;30.80
14873;DHT22;7528;48.576;19.122;2022-12-18T09:39:10;16.00;29.50
14873;DHT22;7528;48.576;19.122;2022-12-18T09:44:24;16.30;28.20
14873;DHT22;7528;48.576;19.122;2022-12-18T09:49:30;16.80;28.00
14873;DHT22;7528;48.576;19.122;2022-12-18T09:54:38;17.30;26.60
14873;DHT22;7528;48.576;19.122;2022-12-18T09:59:46;17.70;26.30
14873;DHT22;7528;48.576;19.122;2022-12-18T10:05:01;18.30;25.90
14873;DHT22;7528;48.576;19.122;2022-12-18T10:10:07;19.00;25.30
14873;DHT22;7528;48.576;19.122;2022-12-18T10:15:20;19.00;24.90
14873;DHT22;7528;48.576;19.122;2022-12-18T10:20:32;19.50;24.50
14873;DHT22;7528;48.576;19.122;2022-12-18T10:25:53;19.70;23.70
14873;DHT22;7528;48.576;19.122;2022-12-18T10:30:58;20.30;23.70
14873;DHT22;7528;48.576;19.122;2022-12-18T10:36:03;21.10;23.00
14873;DHT22;7528;48.576;19.122;2022-12-18T10:41:24;21.20;22.60
14873;DHT22;7528;48.576;19.122;2022-12-18T10:46:27;21.30;22.60
14873;DHT22;7528;48.576;19.122;2022-12-18T10:51:33;21.50;21.80
14873;DHT22;7528;48.576;19.122;2022-12-18T10:56:36;21.70;22.40
14873;DHT22;7528;48.576;19.122;2022-12-18T11:01:48;22.40;21.50
14873;DHT22;7528;48.576;19.122;2022-12-18T11:07:01;22.80;20.80
14873;DHT22;7528;48.576;19.122;2022-12-18T11:12:19;22.90;20.70
14873;DHT22;7528;48.576;19.122;2022-12-18T11:17:27;23.40;20.70
14873;DHT22;7528;48.576;19.122;2022-12-18T11:22:35;23.70;20.30
14873;DHT22;7528;48.576;19.122;2022-12-18T11:27:40;24.20;19.90
14873;DHT22;7528;48.576;19.122;2022-12-18T11:32:44;24.30;19.60
14873;DHT22;7528;48.576;19.122;2022-12-18T11:37:54;24.70;19.40
14873;DHT22;7528;48.576;19.122;2022-12-18T11:43:05;24.90;19.30
14873;DHT22;7528;48.576;19.122;2022-12-18T11:48:14;25.20;18.90
14873;DHT22;7528;48.576;19.122;2022-12-18T11:53:20;25.80;18.70
14873;DHT22;7528;48.576;19.122;2022-12-18T11:58:39;25.80;18.20
14873;DHT22;7528;48.576;19.122;2022-12-18T12:09:13;25.90;18.20
14873;DHT22;7528;48.576;19.122;2022-12-18T12:14:34;26.10;17.70
14873;DHT22;7528;48.576;19.122;2022-12-18T12:19:48;25.80;18.10
14873;DHT22;7528;48.576;19.122;2022-12-18T12:25:10;25.60;18.20
14873;DHT22;7528;48.576;19.122;2022-12-18T12:30:19;25.40;18.40
14873;DHT22;7528;48.576;19.122;2022-12-18T12:35:29;25.10;18.60
14873;DHT22;7528;48.576;19.122;2022-12-18T12:40:39;25.20;18.80
14873;DHT22;7528;48.576;19.122;2022-12-18T12:45:47;25.20;18.80
14873;DHT22;7528;48.576;19.122;2022-12-18T12:50:50;25.20;18.80
14873;DHT22;7528;48.576;19.122;2022-12-18T12:55:55;24.90;19.00
14873;DHT22;7528;48.576;19.122;2022-12-18T13:01:08;24.80;19.30
14873;DHT22;7528;48.576;19.122;2022-12-18T13:10:11;24.50;18.90
14873;DHT22;7528;48.576;19.122;2022-12-18T13:15:21;24.10;19.60
14873;DHT22;7528;48.576;19.122;2022-12-18T13:20:33;24.10;19.70
14873;DHT22;7528;48.576;19.122;2022-12-18T13:25:38;23.80;20.10
14873;DHT22;7528;48.576;19.122;2022-12-18T13:30:49;23.70;20.00
14873;DHT22;7528;48.576;19.122;2022-12-18T13:35:53;23.40;20.20
14873;DHT22;7528;48.576;19.122;2022-12-18T13:41:14;23.10;20.50
14873;DHT22;7528;48.576;19.122;2022-12-18T13:46:25;22.30;20.70
14873;DHT22;7528;48.576;19.122;2022-12-18T13:51:31;21.50;21.70
14873;DHT22;7528;48.576;19.122;2022-12-18T13:56:44;21.00;22.60
14873;DHT22;7528;48.576;19.122;2022-12-18T14:01:50;20.40;22.90
14873;DHT22;7528;48.576;19.122;2022-12-18T14:06:57;19.50;23.40
14873;DHT22;7528;48.576;19.122;2022-12-18T14:12:03;18.60;24.90
14873;DHT22;7528;48.576;19.122;2022-12-18T14:17:19;17.70;25.50
14873;DHT22;7528;48.576;19.122;2022-12-18T14:22:24;16.20;27.20
14873;DHT22;7528;48.576;19.122;2022-12-18T14:27:36;15.00;28.70
14873;DHT22;7528;48.576;19.122;2022-12-18T14:32:39;14.10;30.80
14873;DHT22;7528;48.576;19.122;2022-12-18T14:37:41;13.30;32.10
14873;DHT22;7528;48.576;19.122;2022-12-18T14:42:46;12.50;33.60
14873;DHT22;7528;48.576;19.122;2022-12-18T14:47:48;12.00;35.70
14873;DHT22;7528;48.576;19.122;2022-12-18T14:52:51;11.50;36.90
14873;DHT22;7528;48.576;19.122;2022-12-18T14:57:56;11.00;37.50
14873;DHT22;7528;48.576;19.122;2022-12-18T15:02:59;10.50;38.50
14873;DHT22;7528;48.576;19.122;2022-12-18T15:08:02;10.20;39.50
14873;DHT22;7528;48.576;19.122;2022-12-18T15:13:21;9.90;40.20
14873;DHT22;7528;48.576;19.122;2022-12-18T15:18:29;9.50;39.80
14873;DHT22;7528;48.576;19.122;2022-12-18T15:23:36;9.20;41.10
14873;DHT22;7528;48.576;19.122;2022-12-18T15:28:44;8.80;41.50
14873;DHT22;7528;48.576;19.122;2022-12-18T15:34:05;8.40;42.80
14873;DHT22;7528;48.576;19.122;2022-12-18T15:39:12;8.10;43.80
14873;DHT22;7528;48.576;19.122;2022-12-18T15:44:22;7.90;44.50
14873;DHT22;7528;48.576;19.122;2022-12-18T15:49:26;7.60;45.00
14873;DHT22;7528;48.576;19.122;2022-12-18T15:54:29;7.30;45.50
14873;DHT22;7528;48.576;19.122;2022-12-18T15:59:50;6.90;46.40
14873;DHT22;7528;48.576;19.122;2022-12-18T16:04:54;6.80;46.70
14873;DHT22;7528;48.576;19.122;2022-12-18T16:09:57;6.50;47.30
14873;DHT22;7528;48.576;19.122;2022-12-18T16:15:02;6.40;47.50
14873;DHT22;7528;48.576;19.122;2022-12-18T16:20:07;6.10;48.20
14873;DHT22;7528;48.576;19.122;2022-12-18T16:25:17;5.90;48.40
14873;DHT22;7528;48.576;19.122;2022-12-18T16:30:31;5.80;48.90
14873;DHT22;7528;48.576;19.122;2022-12-18T16:35:34;5.60;49.30
14873;DHT22;7528;48.576;19.122;2022-12-18T16:40:38;5.40;49.70
14873;DHT22;7528;48.576;19.122;2022-12-18T16:46:05;5.20;50.00
14873;DHT22;7528;48.576;19.122;2022-12-18T16:51:07;5.00;50.40
14873;DHT22;7528;48.576;19.122;2022-12-18T16:56:10;4.90;50.70
14873;DHT22;7528;48.576;19.122;2022-12-18T17:01:14;4.70;51.20
14873;DHT22;7528;48.576;19.122;2022-12-18T17:06:17;4.50;51.30
14873;DHT22;7528;48.576;19.122;2022-12-18T17:11:19;4.40;51.60
14873;DHT22;7528;48.576;19.122;2022-12-18T17:16:24;4.30;51.70
14873;DHT22;7528;48.576;19.122;2022-12-18T17:21:28;4.10;51.90
14873;DHT22;7528;48.576;19.122;2022-12-18T17:26:32;3.90;52.50
14873;DHT22;7528;48.576;19.122;2022-12-18T17:31:36;3.80;53.00
14873;DHT22;7528;48.576;19.122;2022-12-18T17:36:39;3.70;53.30
14873;DHT22;7528;48.576;19.122;2022-12-18T17:41:42;3.50;54.10
14873;DHT22;7528;48.576;19.122;2022-12-18T17:52:03;3.10;54.30
14873;DHT22;7528;48.576;19.122;2022-12-18T17:57:06;3.10;54.50
14873;DHT22;7528;48.576;19.122;2022-12-18T18:02:09;3.00;54.50
14873;DHT22;7528;48.576;19.122;2022-12-18T18:07:14;2.90;54.30
14873;DHT22;7528;48.576;19.122;2022-12-18T18:12:17;2.80;54.50
14873;DHT22;7528;48.576;19.122;2022-12-18T18:17:37;2.70;54.80
14873;DHT22;7528;48.576;19.122;2022-12-18T18:22:41;2.50;55.10
14873;DHT22;7528;48.576;19.122;2022-12-18T18:27:44;2.40;55.20
14873;DHT22;7528;48.576;19.122;2022-12-18T18:33:01;2.40;55.50
14873;DHT22;7528;48.576;19.122;2022-12-18T18:38:05;2.20;55.40
14873;DHT22;7528;48.576;19.122;2022-12-18T18:43:08;2.10;55.50
14873;DHT22;7528;48.576;19.122;2022-12-18T18:48:11;2.00;55.80
14873;DHT22;7528;48.576;19.122;2022-12-18T18:53:15;1.90;56.10
14873;DHT22;7528;48.576;19.122;2022-12-18T18:58:18;1.80;56.20
14873;DHT22;7528;48.576;19.122;2022-12-18T19:03:21;1.70;56.60
14873;DHT22;7528;48.576;19.122;2022-12-18T19:08:28;1.60;56.80
14873;DHT22;7528;48.576;19.122;2022-12-18T19:13:32;1.50;56.50
14873;DHT22;7528;48.576;19.122;2022-12-18T19:24:15;1.50;56.80
14873;DHT22;7528;48.576;19.122;2022-12-18T19:29:20;1.50;57.20
14873;DHT22;7528;48.576;19.122;2022-12-18T19:34:28;1.50;57.60
14873;DHT22;7528;48.576;19.122;2022-12-18T19:39:37;1.50;57.50
14873;DHT22;7528;48.576;19.122;2022-12-18T19:44:41;1.40;57.80
14873;DHT22;7528;48.576;19.122;2022-12-18T19:50:17;1.30;57.60
14873;DHT22;7528;48.576;19.122;2022-12-18T19:55:26;1.30;57.90
14873;DHT22;7528;48.576;19.122;2022-12-18T20:00:40;1.30;58.10
14873;DHT22;7528;48.576;19.122;2022-12-18T20:06:07;1.40;58.30
14873;DHT22;7528;48.576;19.122;2022-12-18T20:11:16;1.40;58.40
14873;DHT22;7528;48.576;19.122;2022-12-18T20:16:20;1.40;58.90
14873;DHT22;7528;48.576;19.122;2022-12-18T20:21:24;1.40;58.60
14873;DHT22;7528;48.576;19.122;2022-12-18T20:26:39;1.30;58.70
14873;DHT22;7528;48.576;19.122;2022-12-18T20:31:46;1.40;59.10
14873;DHT22;7528;48.576;19.122;2022-12-18T20:36:48;1.30;59.10
14873;DHT22;7528;48.576;19.122;2022-12-18T20:41:53;1.30;58.80
14873;DHT22;7528;48.576;19.122;2022-12-18T20:46:57;1.40;59.10
14873;DHT22;7528;48.576;19.122;2022-12-18T20:52:02;1.40;59.30
14873;DHT22;7528;48.576;19.122;2022-12-18T20:57:07;1.40;59.40
14873;DHT22;7528;48.576;19.122;2022-12-18T21:02:12;1.50;59.50
14873;DHT22;7528;48.576;19.122;2022-12-18T21:07:15;1.50;59.20
14873;DHT22;7528;48.576;19.122;2022-12-18T21:12:19;1.50;59.40
14873;DHT22;7528;48.576;19.122;2022-12-18T21:17:36;1.50;59.70
14873;DHT22;7528;48.576;19.122;2022-12-18T21:22:39;1.50;59.70
14873;DHT22;7528;48.576;19.122;2022-12-18T21:27:43;1.50;59.40
14873;DHT22;7528;48.576;19.122;2022-12-18T21:32:46;1.50;59.70
14873;DHT22;7528;48.576;19.122;2022-12-18T21:37:49;1.60;60.10
14873;DHT22;7528;48.576;19.122;2022-12-18T21:43:09;1.60;60.00
14873;DHT22;7528;48.576;19.122;2022-12-18T21:48:29;1.60;60.10
14873;DHT22;7528;48.576;19.122;2022-12-18T21:53:31;1.70;60.20
14873;DHT22;7528;48.576;19.122;2022-12-18T21:58:35;1.70;60.30
14873;DHT22;7528;48.576;19.122;2022-12-18T22:03:38;1.70;60.60
14873;DHT22;7528;48.576;19.122;2022-12-18T22:08:41;1.80;60.80
14873;DHT22;7528;48.576;19.122;2022-12-18T22:13:45;1.80;60.90
14873;DHT22;7528;48.576;19.122;2022-12-18T22:18:48;1.80;61.10
14873;DHT22;7528;48.576;19.122;2022-12-18T22:23:52;1.90;60.90
14873;DHT22;7528;48.576;19.122;2022-12-18T22:28:57;1.90;60.50
14873;DHT22;7528;48.576;19.122;2022-12-18T22:34:17;2.00;59.30
14873;DHT22;7528;48.576;19.122;2022-12-18T22:39:22;2.00;59.40
14873;DHT22;7528;48.576;19.122;2022-12-18T22:44:27;2.00;59.70
14873;DHT22;7528;48.576;19.122;2022-12-18T22:49:30;1.90;59.80
14873;DHT22;7528;48.576;19.122;2022-12-18T22:54:33;2.00;59.90
14873;DHT22;7528;48.576;19.122;2022-12-18T22:59:37;1.90;59.70
14873;DHT22;7528;48.576;19.122;2022-12-18T23:04:40;1.90;61.00
14873;DHT22;7528;48.576;19.122;2022-12-18T23:09:43;1.90;60.30
14873;DHT22;7528;48.576;19.122;2022-12-18T23:14:47;1.90;60.30
14873;DHT22;7528;48.576;19.122;2022-12-18T23:19:50;1.90;60.30
14873;DHT22;7528;48.576;19.122;2022-12-18T23:24:53;1.90;60.30
14873;DHT22;7528;48.576;19.122;2022-12-18T23:29:57;2.00;60.20
14873;DHT22;7528;48.576;19.122;2022-12-18T23:34:59;1.90;60.00
14873;DHT22;7528;48.576;19.122;2022-12-18T23:40:03;1.90;59.80
14873;DHT22;7528;48.576;19.122;2022-12-18T23:45:08;1.90;59.50
14873;DHT22;7528;48.576;19.122;2022-12-18T23:50:11;1.90;59.30
14873;DHT22;7528;48.576;19.122;2022-12-18T23:55:14;1.90;59.10
